Time;durP1;ratioP1;P1;durP2;ratioP2;P2;SDS_P1;SDS_P2;PMS_P1;PMS_P2;Temp;Humidity;BMP_temperature;BMP_pressure;BME280_temperature;BME280_humidity;BME280_pressure;Samples;Min_cycle;Max_cycle;Signal;HPM_P1;HPM_P2
2022/05/15 00:02:48;;;;;;;2.28;1.50;;;22.20;43.50;;;;;;6250290;28;20037;-69
2022/05/15 00:05:56;;;;;;;2.03;1.50;;;22.20;43.50;;;;;;6250412;28;20081;-68
2022/05/15 00:08:58;;;;;;;2.88;1.60;;;22.20;43.50;;;;;;6235439;28;20018;-68
2022/05/15 00:12:03;;;;;;;1.90;1.30;;;22.20;43.50;;;;;;6224733;28;20070;-68
2022/05/15 00:15:04;;;;;;;2.70;1.42;;;22.20;43.40;;;;;;6208285;28;20017;-69
2022/05/15 00:18:06;;;;;;;2.97;1.50;;;22.20;43.50;;;;;;6208632;28;20033;-69
2022/05/15 00:21:10;;;;;;;1.35;1.10;;;22.20;43.40;;;;;;6208501;28;20040;-68
2022/05/15 00:24:12;;;;;;;1.75;1.33;;;22.20;43.40;;;;;;6207897;28;20196;-68
2022/05/15 00:27:13;;;;;;;1.80;1.30;;;22.20;43.40;;;;;;6208414;28;20026;-68
2022/05/15 00:30:15;;;;;;;1.88;1.27;;;22.20;43.40;;;;;;6225734;28;20395;-68
2022/05/15 00:33:16;;;;;;;1.67;1.30;;;22.20;43.40;;;;;;6225899;28;20053;-71
2022/05/15 00:36:17;;;;;;;2.38;1.30;;;22.20;43.40;;;;;;6225597;28;20029;-68
2022/05/15 00:39:18;;;;;;;2.55;1.50;;;22.20;43.30;;;;;;6225968;28;20026;-69
2022/05/15 00:42:18;;;;;;;1.85;1.13;;;22.20;43.40;;;;;;6224353;28;20128;-68
2022/05/15 00:45:21;;;;;;;1.40;1.13;;;22.20;43.30;;;;;;6207855;28;20117;-69
2022/05/15 00:48:23;;;;;;;2.53;1.27;;;22.20;43.40;;;;;;6207935;28;20014;-69
2022/05/15 00:51:54;;;;;;;2.85;1.40;;;22.10;43.40;;;;;;6226525;28;20029;-69
2022/05/15 00:55:06;;;;;;;1.73;1.20;;;22.20;43.30;;;;;;6248941;28;20037;-68
2022/05/15 00:58:15;;;;;;;1.42;1.10;;;22.20;43.30;;;;;;6250060;28;20042;-68
2022/05/15 01:01:17;;;;;;;2.20;1.30;;;22.20;43.20;;;;;;6250123;28;20060;-68
2022/05/15 01:04:19;;;;;;;1.55;1.25;;;22.20;43.30;;;;;;6246210;28;20041;-68
2022/05/15 01:07:19;;;;;;;2.53;1.58;;;22.20;43.30;;;;;;6244514;28;20037;-68
2022/05/15 01:10:21;;;;;;;1.95;1.40;;;22.20;43.30;;;;;;6221491;28;20092;-68
2022/05/15 01:13:22;;;;;;;1.45;1.15;;;22.20;43.40;;;;;;6221194;28;20034;-68
2022/05/15 01:16:25;;;;;;;1.33;1.00;;;22.20;43.20;;;;;;6224946;28;20055;-68
2022/05/15 01:19:34;;;;;;;2.17;1.25;;;22.20;43.30;;;;;;6245834;28;20571;-68
2022/05/15 01:22:36;;;;;;;1.75;1.13;;;22.10;43.60;;;;;;6228237;28;20029;-69
2022/05/15 01:25:37;;;;;;;2.40;1.38;;;22.00;44.80;;;;;;6245563;28;20030;-68
2022/05/15 01:28:38;;;;;;;1.65;1.13;;;21.90;45.50;;;;;;6245836;28;20029;-68
2022/05/15 01:31:39;;;;;;;1.77;1.33;;;21.90;45.80;;;;;;6243934;28;20160;-69
2022/05/15 01:34:40;;;;;;;1.52;1.20;;;21.80;46.00;;;;;;6245312;28;20408;-68
2022/05/15 01:37:41;;;;;;;2.00;1.40;;;21.80;46.10;;;;;;6245722;28;20030;-68
2022/05/15 01:40:42;;;;;;;2.13;1.42;;;21.80;46.30;;;;;;6245671;28;20092;-68
2022/05/15 01:43:52;;;;;;;2.50;1.30;;;21.80;46.50;;;;;;6244739;28;20124;-69
2022/05/15 01:46:53;;;;;;;1.95;1.30;;;21.80;46.50;;;;;;6245539;28;20028;-69
2022/05/15 01:49:54;;;;;;;2.25;1.50;;;21.70;46.60;;;;;;6227783;28;20022;-68
2022/05/15 01:52:54;;;;;;;3.03;1.55;;;21.70;46.70;;;;;;6244892;28;20029;-68
2022/05/15 01:55:56;;;;;;;2.33;1.50;;;21.70;46.80;;;;;;6245313;28;20037;-68
2022/05/15 01:58:57;;;;;;;1.95;1.25;;;21.70;46.80;;;;;;6227348;28;20025;-70
2022/05/15 02:01:58;;;;;;;2.47;1.63;;;21.70;47.00;;;;;;6244605;28;20030;-68
2022/05/15 02:04:58;;;;;;;1.30;0.90;;;21.70;47.00;;;;;;6242157;28;20033;-71
2022/05/15 02:07:59;;;;;;;2.47;1.60;;;21.60;47.00;;;;;;6244573;28;20064;-68
2022/05/15 02:11:00;;;;;;;1.65;1.25;;;21.60;47.10;;;;;;6226580;28;20044;-68
2022/05/15 02:14:01;;;;;;;1.67;1.30;;;21.60;47.30;;;;;;6244289;28;20053;-69
2022/05/15 02:17:02;;;;;;;1.05;0.93;;;21.60;47.30;;;;;;6226166;28;20387;-69
2022/05/15 02:20:04;;;;;;;1.58;1.10;;;21.60;47.30;;;;;;6226928;28;20113;-68
2022/05/15 02:23:06;;;;;;;1.63;1.30;;;21.60;47.40;;;;;;6220481;28;20026;-69
2022/05/15 02:26:07;;;;;;;1.67;1.30;;;21.60;47.40;;;;;;6218770;28;20025;-69
2022/05/15 02:29:08;;;;;;;1.15;1.00;;;21.60;47.50;;;;;;6220074;28;20105;-69
2022/05/15 02:32:08;;;;;;;1.88;1.35;;;21.60;47.60;;;;;;6202021;28;20084;-69
2022/05/15 02:35:10;;;;;;;1.38;1.27;;;21.60;47.60;;;;;;6201285;28;20029;-68
2022/05/15 02:38:11;;;;;;;1.92;1.27;;;21.60;47.60;;;;;;6219418;28;20551;-68
2022/05/15 02:41:12;;;;;;;1.73;1.17;;;21.60;47.70;;;;;;6219466;28;20034;-69
2022/05/15 02:44:14;;;;;;;1.83;1.27;;;21.50;47.70;;;;;;6219203;28;20080;-68
2022/05/15 02:47:15;;;;;;;2.45;1.30;;;21.50;47.70;;;;;;6219515;28;20034;-68
2022/05/15 02:53:39;;;;;;;1.40;1.10;;;21.50;47.80;;;;;;6237938;28;20046;-69
2022/05/15 02:56:39;;;;;;;1.63;1.38;;;21.60;47.90;;;;;;6243820;28;20742;-69
2022/05/15 02:59:40;;;;;;;2.05;1.38;;;21.60;48.00;;;;;;6243840;28;20025;-67
2022/05/15 03:02:41;;;;;;;1.73;1.30;;;21.50;48.00;;;;;;6243242;28;20024;-67
2022/05/15 03:05:42;;;;;;;2.03;1.42;;;21.50;48.00;;;;;;6243143;28;20491;-67
2022/05/15 03:08:45;;;;;;;1.75;1.00;;;21.50;47.90;;;;;;6242953;28;20057;-67
2022/05/15 03:11:46;;;;;;;1.55;1.17;;;21.50;48.00;;;;;;6243339;28;20045;-67
2022/05/15 03:14:46;;;;;;;2.05;1.35;;;21.50;48.00;;;;;;6242830;28;20378;-69
2022/05/15 03:17:47;;;;;;;1.95;1.30;;;21.50;48.10;;;;;;6225707;28;20029;-67
2022/05/15 03:20:48;;;;;;;1.38;1.20;;;21.50;48.20;;;;;;6243209;28;20056;-67
2022/05/15 03:23:48;;;;;;;1.20;1.10;;;21.50;48.10;;;;;;6242429;28;20029;-67
2022/05/15 03:26:49;;;;;;;1.73;1.42;;;21.50;48.10;;;;;;6242217;28;20667;-67
2022/05/15 03:29:50;;;;;;;1.45;1.15;;;21.50;48.10;;;;;;6242791;28;20026;-67
2022/05/15 03:32:50;;;;;;;2.10;1.52;;;21.50;48.20;;;;;;6242699;28;20025;-67
2022/05/15 03:35:51;;;;;;;1.35;1.15;;;21.50;48.20;;;;;;6224989;28;20079;-68
2022/05/15 03:38:52;;;;;;;2.03;1.40;;;21.50;48.30;;;;;;6242742;28;20036;-67
2022/05/15 03:41:53;;;;;;;2.13;1.45;;;21.50;48.30;;;;;;6242480;28;20029;-68
2022/05/15 03:44:54;;;;;;;1.30;1.15;;;21.50;48.30;;;;;;6242372;28;20045;-67
2022/05/15 03:47:55;;;;;;;1.65;1.08;;;21.50;48.30;;;;;;6242786;28;20515;-68
2022/05/15 03:50:56;;;;;;;1.35;1.20;;;21.50;48.20;;;;;;6242880;28;20026;-68
2022/05/15 03:53:57;;;;;;;3.83;1.20;;;21.50;48.40;;;;;;6224525;28;20499;-67
2022/05/15 03:56:57;;;;;;;2.72;1.40;;;21.50;48.40;;;;;;6224867;28;20677;-68
2022/05/15 03:59:58;;;;;;;1.85;1.30;;;21.50;48.40;;;;;;6242796;28;20484;-67
2022/05/15 04:02:58;;;;;;;1.55;1.05;;;21.50;48.40;;;;;;6242274;28;20029;-67
2022/05/15 04:06:00;;;;;;;1.70;1.25;;;21.50;48.40;;;;;;6242097;28;20377;-67
2022/05/15 04:09:01;;;;;;;1.40;1.15;;;21.50;48.40;;;;;;6242100;28;20049;-67
2022/05/15 04:12:02;;;;;;;2.10;1.20;;;21.50;48.40;;;;;;6225001;28;20025;-67
2022/05/15 04:15:03;;;;;;;2.03;1.27;;;21.50;48.50;;;;;;6241852;28;20022;-67
2022/05/15 04:18:05;;;;;;;1.55;1.13;;;21.50;48.50;;;;;;6242566;28;20036;-68
2022/05/15 04:21:06;;;;;;;1.70;1.20;;;21.50;48.40;;;;;;6241996;28;20022;-67
2022/05/15 04:24:11;;;;;;;1.35;1.00;;;21.50;48.50;;;;;;6241787;28;20028;-68
2022/05/15 04:27:11;;;;;;;1.75;1.10;;;21.50;48.50;;;;;;6241758;28;20025;-67
2022/05/15 04:30:17;;;;;;;1.40;1.00;;;21.50;48.50;;;;;;6240326;28;20018;-68
2022/05/15 04:33:17;;;;;;;1.30;1.08;;;21.50;48.50;;;;;;6224198;28;20021;-67
2022/05/15 04:36:18;;;;;;;1.52;1.00;;;21.50;48.50;;;;;;6241635;28;20048;-67
2022/05/15 04:39:19;;;;;;;1.15;0.95;;;21.50;48.50;;;;;;6235959;28;20033;-70
2022/05/15 04:42:19;;;;;;;2.22;1.48;;;21.50;48.50;;;;;;6227807;28;20025;-71
2022/05/15 04:45:20;;;;;;;2.58;1.30;;;21.60;48.80;;;;;;6245402;28;20083;-70
2022/05/15 04:48:21;;;;;;;1.60;1.25;;;21.60;48.70;;;;;;6245654;28;20076;-69
2022/05/15 04:51:21;;;;;;;4.18;1.58;;;21.60;48.60;;;;;;6246003;28;20163;-70
2022/05/15 04:54:22;;;;;;;1.70;1.10;;;21.60;48.70;;;;;;6245057;28;20433;-70
2022/05/15 04:57:22;;;;;;;1.20;1.00;;;21.50;48.70;;;;;;6245256;28;20022;-70
2022/05/15 05:00:43;;;;;;;1.30;1.00;;;21.60;48.80;;;;;;6245561;28;20071;-70
2022/05/15 05:03:44;;;;;;;1.60;1.00;;;21.50;48.70;;;;;;6219866;28;20096;-69
2022/05/15 05:06:44;;;;;;;1.75;1.10;;;21.50;48.70;;;;;;6220622;28;20038;-71
2022/05/15 05:09:45;;;;;;;2.33;1.10;;;21.50;48.80;;;;;;6241938;28;20041;-71
2022/05/15 05:12:46;;;;;;;2.45;1.10;;;21.50;48.70;;;;;;6238780;28;20045;-70
2022/05/15 05:15:46;;;;;;;3.42;1.10;;;21.50;48.80;;;;;;6202005;28;20038;-70
2022/05/15 05:18:49;;;;;;;2.13;1.20;;;21.50;48.80;;;;;;6234029;28;20056;-71
2022/05/15 05:21:49;;;;;;;1.60;1.17;;;21.50;48.90;;;;;;6227153;28;20041;-71
2022/05/15 05:24:50;;;;;;;1.63;1.25;;;21.50;48.80;;;;;;6232108;28;20554;-71
2022/05/15 05:27:50;;;;;;;1.95;1.05;;;21.50;48.90;;;;;;6243579;28;20030;-70
2022/05/15 05:30:52;;;;;;;1.75;1.27;;;21.50;48.80;;;;;;6231422;28;20018;-71
2022/05/15 05:33:52;;;;;;;2.00;1.45;;;21.50;49.20;;;;;;6235420;28;20105;-71
2022/05/15 05:36:53;;;;;;;1.85;1.20;;;21.50;49.00;;;;;;6244301;28;20025;-70
2022/05/15 05:39:54;;;;;;;1.60;1.00;;;21.60;48.90;;;;;;6244435;28;20029;-73
2022/05/15 05:42:54;;;;;;;1.30;1.20;;;21.60;48.80;;;;;;6240439;28;20041;-70
2022/05/15 05:45:55;;;;;;;2.22;1.02;;;21.60;48.90;;;;;;6236914;28;20033;-69
2022/05/15 05:48:56;;;;;;;3.28;1.40;;;21.60;48.80;;;;;;6244590;28;20076;-70
2022/05/15 05:51:57;;;;;;;2.60;1.20;;;21.60;48.80;;;;;;6232889;28;20091;-69
2022/05/15 05:54:58;;;;;;;2.70;1.60;;;21.60;48.80;;;;;;6210894;28;20040;-69
2022/05/15 05:57:59;;;;;;;3.17;1.65;;;21.60;48.70;;;;;;6220402;28;20040;-70
2022/05/15 06:00:59;;;;;;;2.63;1.55;;;21.60;48.70;;;;;;6219680;28;20036;-69
2022/05/15 06:07:25;;;;;;;1.80;1.10;;;21.60;48.70;;;;;;6225978;28;20026;-70
2022/05/15 06:10:25;;;;;;;2.33;1.25;;;21.60;48.70;;;;;;6232755;28;20152;-68
2022/05/15 06:13:26;;;;;;;1.73;1.10;;;21.60;48.80;;;;;;6239672;28;20028;-70
2022/05/15 06:16:27;;;;;;;1.88;1.10;;;21.60;48.70;;;;;;6237591;28;20231;-68
2022/05/15 06:19:28;;;;;;;3.13;1.02;;;21.70;48.70;;;;;;6232840;28;20025;-68
2022/05/15 06:22:28;;;;;;;1.73;1.10;;;21.70;48.80;;;;;;6243457;28;20492;-70
2022/05/15 06:25:29;;;;;;;1.73;1.10;;;21.70;49.00;;;;;;6242933;28;20082;-69
2022/05/15 06:28:30;;;;;;;1.65;1.20;;;21.90;48.80;;;;;;6243353;28;20037;-70
2022/05/15 06:31:31;;;;;;;2.28;1.10;;;22.00;48.90;;;;;;6242951;28;20018;-71
2022/05/15 06:34:31;;;;;;;1.90;1.40;;;21.90;48.90;;;;;;6230381;28;20017;-67
2022/05/15 06:37:32;;;;;;;1.88;1.20;;;21.80;49.00;;;;;;6225775;28;20036;-66
2022/05/15 06:40:33;;;;;;;1.63;1.10;;;21.80;49.10;;;;;;6243571;28;20064;-67
2022/05/15 06:43:34;;;;;;;1.52;1.27;;;21.80;49.10;;;;;;6225337;28;20056;-66
2022/05/15 06:46:35;;;;;;;5.32;1.27;;;21.70;49.10;;;;;;6243853;28;20468;-67
2022/05/15 06:49:35;;;;;;;1.75;1.10;;;21.70;49.10;;;;;;6243387;28;20025;-67
2022/05/15 06:52:37;;;;;;;2.67;1.33;;;21.70;49.10;;;;;;6243139;28;20115;-67
2022/05/15 06:57:28;;;;;;;1.40;1.20;;;21.70;49.10;;;;;;6243193;28;20026;-66
2022/05/15 06:58:59;;;;;;;1.90;1.38;;;21.70;49.10;;;;;;6243305;28;20017;-66
2022/05/15 07:02:00;;;;;;;3.00;1.23;;;21.70;49.10;;;;;;6241889;28;20734;-67
2022/05/15 07:05:01;;;;;;;1.55;1.00;;;21.70;49.10;;;;;;6243088;28;20037;-67
2022/05/15 07:08:02;;;;;;;1.77;1.17;;;21.70;49.10;;;;;;6242966;28;20029;-67
2022/05/15 07:11:02;;;;;;;1.83;1.13;;;21.70;49.10;;;;;;6242726;28;20037;-67
2022/05/15 07:14:03;;;;;;;2.13;1.27;;;21.70;49.10;;;;;;6242969;28;20032;-66
2022/05/15 07:17:04;;;;;;;2.38;1.25;;;21.70;49.10;;;;;;6242784;28;20097;-67
2022/05/15 07:20:06;;;;;;;0.95;0.80;;;21.70;49.10;;;;;;6242706;28;20397;-67
2022/05/15 07:23:06;;;;;;;1.58;1.30;;;21.70;49.10;;;;;;6225249;28;20034;-67
2022/05/15 07:26:07;;;;;;;1.27;0.98;;;21.70;49.00;;;;;;6224477;28;20506;-67
2022/05/15 07:29:08;;;;;;;2.08;1.17;;;21.70;49.00;;;;;;6242762;28;20033;-68
2022/05/15 07:32:09;;;;;;;1.52;1.10;;;21.70;49.00;;;;;;6218103;28;20037;-67
2022/05/15 07:35:10;;;;;;;2.08;1.00;;;21.70;49.00;;;;;;6217989;28;20469;-67
2022/05/15 07:38:11;;;;;;;1.80;1.40;;;21.70;49.00;;;;;;6216805;28;20030;-67
2022/05/15 07:41:12;;;;;;;1.42;1.13;;;21.70;49.00;;;;;;6229611;28;20495;-67
2022/05/15 07:44:13;;;;;;;1.20;0.95;;;21.70;49.00;;;;;;6243477;28;20391;-67
2022/05/15 07:47:13;;;;;;;1.58;1.13;;;21.70;49.00;;;;;;6243734;28;20029;-67
2022/05/15 07:50:14;;;;;;;1.27;0.90;;;21.70;49.00;;;;;;6243530;28;20060;-66
2022/05/15 07:53:16;;;;;;;2.17;1.20;;;21.70;49.10;;;;;;6243508;28;20456;-67
2022/05/15 07:56:17;;;;;;;1.25;1.00;;;21.70;49.10;;;;;;6225668;28;20032;-67
2022/05/15 07:59:17;;;;;;;1.63;1.10;;;21.70;49.10;;;;;;6243462;28;20030;-67
2022/05/15 08:02:18;;;;;;;2.00;1.15;;;21.70;49.00;;;;;;6242685;28;20041;-66
2022/05/15 08:08:40;;;;;;;1.25;0.80;;;21.70;49.10;;;;;;6243547;28;20045;-66
2022/05/15 08:11:42;;;;;;;0.95;0.85;;;21.70;49.20;;;;;;6243144;28;20036;-66
2022/05/15 08:14:43;;;;;;;1.48;0.95;;;21.70;49.10;;;;;;6246720;28;20059;-67
2022/05/15 08:17:43;;;;;;;1.95;1.20;;;21.70;49.10;;;;;;6248330;28;20029;-68
2022/05/15 08:24:05;;;;;;;1.33;1.13;;;21.70;49.20;;;;;;6247973;28;20033;-66
2022/05/15 08:27:06;;;;;;;1.77;1.08;;;21.70;49.10;;;;;;6247642;28;20033;-67
2022/05/15 08:30:07;;;;;;;1.73;1.15;;;21.70;49.90;;;;;;6230200;28;20025;-67
2022/05/15 08:33:10;;;;;;;1.27;0.85;;;21.70;49.10;;;;;;6247282;28;20025;-67
2022/05/15 08:36:11;;;;;;;1.20;0.80;;;21.70;49.20;;;;;;6247495;28;20049;-68
2022/05/15 08:39:12;;;;;;;1.38;1.00;;;21.70;49.20;;;;;;6247665;28;20027;-67
2022/05/15 08:42:23;;;;;;;1.38;1.00;;;21.70;49.10;;;;;;6247343;28;20049;-67
2022/05/15 08:45:29;;;;;;;1.45;1.00;;;21.70;49.20;;;;;;6229641;28;20068;-69
2022/05/15 08:48:34;;;;;;;1.90;1.02;;;21.60;49.20;;;;;;6247211;28;20072;-67
2022/05/15 08:51:36;;;;;;;1.55;1.00;;;21.70;49.20;;;;;;6247149;28;20032;-67
2022/05/15 08:55:00;;;;;;;1.33;0.90;;;21.70;49.20;;;;;;6247195;28;20057;-67
2022/05/15 08:58:08;;;;;;;1.95;1.10;;;21.70;49.20;;;;;;6247041;28;20472;-67
2022/05/15 09:01:20;;;;;;;1.95;1.23;;;21.70;49.20;;;;;;6246912;28;20726;-67
2022/05/15 09:04:21;;;;;;;1.25;0.88;;;21.70;49.20;;;;;;6246693;28;20029;-68
2022/05/15 09:07:43;;;;;;;1.48;1.02;;;21.70;49.30;;;;;;6246886;28;20116;-67
2022/05/15 09:11:07;;;;;;;1.48;1.17;;;21.70;49.20;;;;;;6228985;28;20084;-66
2022/05/15 09:14:11;;;;;;;1.20;1.05;;;21.70;49.30;;;;;;6229062;28;20030;-67
2022/05/15 09:17:34;;;;;;;1.10;0.90;;;21.70;49.30;;;;;;6246724;28;20408;-67
2022/05/15 09:21:09;;;;;;;1.55;0.93;;;21.70;49.30;;;;;;6247129;28;20056;-67
2022/05/15 09:24:41;;;;;;;2.33;1.10;;;21.70;49.30;;;;;;6245835;28;20467;-67
2022/05/15 09:28:07;;;;;;;1.25;1.00;;;21.60;49.20;;;;;;6246229;28;20037;-67
2022/05/15 09:31:42;;;;;;;1.88;1.15;;;21.70;49.30;;;;;;6246193;28;20041;-67
2022/05/15 09:34:43;;;;;;;0.82;0.70;;;21.70;49.30;;;;;;6228593;28;20030;-68
2022/05/15 09:44:39;;;;;;;1.23;0.88;;;21.60;49.30;;;;;;6241134;28;20589;-73
2022/05/15 09:47:44;;;;;;;1.08;0.90;;;21.70;49.50;;;;;;6243934;28;20048;-71
2022/05/15 09:50:47;;;;;;;0.80;0.80;;;21.80;49.20;;;;;;6233035;28;20024;-70
2022/05/15 09:53:52;;;;;;;1.27;0.90;;;21.70;49.20;;;;;;6243907;28;20021;-70
2022/05/15 09:57:13;;;;;;;0.98;0.88;;;21.70;49.30;;;;;;6226300;28;20680;-71
2022/05/15 10:00:14;;;;;;;1.48;0.90;;;21.70;49.40;;;;;;6225862;28;20443;-71
2022/05/15 10:03:23;;;;;;;1.98;1.20;;;21.70;49.40;;;;;;6226218;28;20025;-70
2022/05/15 10:06:38;;;;;;;1.13;0.80;;;21.70;49.40;;;;;;6243455;28;20573;-70
2022/05/15 10:09:41;;;;;;;0.63;0.63;;;21.70;49.40;;;;;;6225222;28;20193;-71
2022/05/15 10:12:43;;;;;;;1.45;1.00;;;21.70;49.40;;;;;;6243752;28;20021;-70
2022/05/15 10:15:48;;;;;;;1.25;1.10;;;21.70;49.40;;;;;;6233426;28;20068;-70
2022/05/15 10:19:04;;;;;;;1.20;0.88;;;21.70;49.40;;;;;;6243038;28;20021;-70
2022/05/15 10:22:36;;;;;;;1.20;0.75;;;21.70;49.40;;;;;;6233941;28;20069;-70
2022/05/15 10:25:42;;;;;;;0.95;0.80;;;21.70;49.50;;;;;;6221268;28;20026;-71
2022/05/15 10:28:55;;;;;;;1.40;0.95;;;21.70;49.40;;;;;;6236577;28;20075;-72
2022/05/15 10:32:10;;;;;;;1.15;0.90;;;21.70;49.50;;;;;;6225479;28;20063;-71
2022/05/15 10:35:15;;;;;;;1.50;1.10;;;21.60;49.30;;;;;;6227781;28;20022;-71
2022/05/15 10:38:41;;;;;;;1.33;0.93;;;21.70;49.50;;;;;;6225298;28;20025;-70
2022/05/15 10:42:07;;;;;;;0.93;0.70;;;21.60;49.40;;;;;;6233882;28;20037;-71
2022/05/15 10:45:08;;;;;;;0.90;0.80;;;21.60;49.40;;;;;;6224240;28;20438;-72
2022/05/15 10:48:34;;;;;;;1.00;0.82;;;21.60;49.40;;;;;;6241140;28;20615;-70
2022/05/15 10:51:44;;;;;;;0.85;0.82;;;21.60;49.40;;;;;;6242588;28;20021;-71
2022/05/15 10:58:54;;;;;;;0.70;0.70;;;21.70;49.50;;;;;;6243394;28;20079;-70
2022/05/15 11:02:21;;;;;;;1.00;0.90;;;21.70;49.50;;;;;;6243254;28;20060;-70
2022/05/15 11:05:34;;;;;;;1.05;0.80;;;21.70;49.50;;;;;;6224873;28;20021;-70
2022/05/15 11:08:44;;;;;;;1.25;0.80;;;21.60;49.50;;;;;;6243041;28;20025;-72
2022/05/15 11:12:30;;;;;;;0.80;0.80;;;21.60;49.50;;;;;;6224692;28;20040;-71
2022/05/15 11:15:41;;;;;;;0.73;0.73;;;21.70;49.50;;;;;;6167140;28;20045;-70
2022/05/15 11:19:10;;;;;;;0.70;0.70;;;21.60;49.50;;;;;;6237082;28;20100;-70
2022/05/15 11:22:31;;;;;;;1.38;0.90;;;21.60;50.20;;;;;;6222264;28;20125;-70
2022/05/15 11:25:42;;;;;;;0.73;0.70;;;21.60;49.50;;;;;;6230881;28;20101;-70
2022/05/15 11:28:47;;;;;;;1.13;1.00;;;21.60;49.50;;;;;;6241653;28;20184;-71
2022/05/15 11:31:56;;;;;;;1.25;0.80;;;21.60;49.50;;;;;;6224336;28;20029;-71
2022/05/15 11:35:00;;;;;;;0.95;0.82;;;21.70;49.60;;;;;;6224096;28;20119;-71
2022/05/15 11:38:08;;;;;;;3.30;0.85;;;21.60;49.50;;;;;;6242180;28;20781;-70
2022/05/15 11:41:35;;;;;;;1.25;0.80;;;21.60;49.70;;;;;;6205050;28;20034;-70
2022/05/15 11:44:42;;;;;;;1.17;0.88;;;21.60;49.60;;;;;;6206685;28;20042;-71
2022/05/15 11:48:16;;;;;;;0.82;0.80;;;21.60;49.50;;;;;;6216717;28;20018;-71
2022/05/15 11:51:17;;;;;;;0.88;0.73;;;21.70;49.60;;;;;;6193806;28;20647;-70
2022/05/15 11:54:42;;;;;;;2.70;0.70;;;21.70;49.50;;;;;;6199597;28;20033;-68
2022/05/15 11:57:45;;;;;;;0.60;0.60;;;21.70;49.70;;;;;;6199570;28;20041;-69
2022/05/15 12:00:58;;;;;;;1.13;0.77;;;21.70;49.70;;;;;;6266379;28;20024;-69
2022/05/15 12:04:01;;;;;;;0.70;0.70;;;21.70;49.60;;;;;;6266235;28;20557;-68
2022/05/15 12:07:02;;;;;;;0.65;0.60;;;21.70;49.70;;;;;;6248466;28;20036;-69
2022/05/15 12:10:02;;;;;;;1.15;0.90;;;21.70;49.70;;;;;;6248150;28;20041;-69
2022/05/15 12:13:30;;;;;;;1.67;0.70;;;21.70;49.70;;;;;;6265988;28;20036;-69
2022/05/15 12:16:33;;;;;;;1.00;0.57;;;21.60;49.60;;;;;;6247802;28;20033;-69
2022/05/15 12:19:44;;;;;;;0.80;0.80;;;21.60;49.60;;;;;;6265704;28;20021;-68
2022/05/15 12:22:50;;;;;;;0.90;0.68;;;21.60;49.60;;;;;;6247862;28;20031;-71
2022/05/15 12:26:12;;;;;;;1.00;0.70;;;21.60;49.60;;;;;;6240996;28;20026;-69
2022/05/15 12:29:28;;;;;;;1.27;0.88;;;21.60;49.60;;;;;;6223722;28;20626;-69
2022/05/15 12:32:38;;;;;;;0.98;0.80;;;21.60;49.70;;;;;;6241700;28;20022;-69
2022/05/15 12:35:41;;;;;;;1.08;0.88;;;21.60;49.60;;;;;;6223003;28;20434;-69
2022/05/15 12:38:53;;;;;;;0.80;0.60;;;21.60;49.70;;;;;;6241406;28;20028;-68
2022/05/15 12:41:58;;;;;;;1.60;0.90;;;21.70;49.70;;;;;;6241130;28;20018;-71
2022/05/15 12:45:04;;;;;;;0.50;0.50;;;21.60;49.70;;;;;;6240962;28;20029;-70
2022/05/15 12:48:12;;;;;;;0.77;0.65;;;21.60;49.70;;;;;;6240682;28;20032;-68
2022/05/15 12:51:14;;;;;;;1.63;0.90;;;21.60;49.70;;;;;;6240965;28;20029;-70
2022/05/15 12:54:29;;;;;;;0.80;0.70;;;21.60;49.70;;;;;;6240282;28;20021;-70
2022/05/15 12:57:29;;;;;;;0.80;0.68;;;21.70;49.70;;;;;;6222651;28;20112;-68
2022/05/15 13:00:34;;;;;;;0.93;0.70;;;21.60;49.70;;;;;;6243255;28;20040;-69
2022/05/15 13:03:35;;;;;;;0.55;0.55;;;21.60;49.70;;;;;;6227515;28;20677;-66
2022/05/15 13:06:39;;;;;;;0.57;0.57;;;21.60;49.70;;;;;;6244613;28;20030;-66
2022/05/15 13:09:39;;;;;;;0.63;0.50;;;21.60;49.70;;;;;;6251573;28;20053;-67
2022/05/15 13:12:53;;;;;;;0.90;0.68;;;21.60;49.70;;;;;;6268742;28;20032;-67
2022/05/15 13:15:57;;;;;;;1.65;0.85;;;21.70;49.80;;;;;;6269374;28;20029;-66
2022/05/15 13:18:58;;;;;;;2.72;0.85;;;21.70;49.80;;;;;;6268917;28;20572;-67
2022/05/15 13:22:00;;;;;;;6.53;0.98;;;21.70;49.80;;;;;;6260176;28;20036;-67
2022/05/15 13:25:12;;;;;;;8.45;1.10;;;21.60;49.50;;;;;;6262523;28;20553;-70
2022/05/15 13:28:14;;;;;;;4.65;1.05;;;21.70;49.10;;;;;;6267146;28;20029;-68
2022/05/15 13:31:14;;;;;;;9.07;1.02;;;21.70;48.40;;;;;;6251689;28;20391;-67
2022/05/15 13:34:26;;;;;;;6.97;1.52;;;21.70;48.50;;;;;;6244254;28;20021;-68
2022/05/15 13:37:29;;;;;;;8.02;1.00;;;21.70;48.30;;;;;;6244924;28;20392;-68
2022/05/15 13:43:56;;;;;;;2.97;0.88;;;21.70;46.20;;;;;;6244078;28;20049;-68
2022/05/15 13:47:06;;;;;;;7.53;1.23;;;21.70;47.50;;;;;;6226387;28;20029;-68
2022/05/15 13:50:06;;;;;;;2.10;0.80;;;21.70;47.90;;;;;;6217861;28;20381;-68
2022/05/15 13:53:18;;;;;;;3.63;0.85;;;21.70;46.50;;;;;;6233626;28;20030;-68
2022/05/15 13:56:18;;;;;;;2.58;0.77;;;21.70;45.10;;;;;;6243131;28;20030;-69
2022/05/15 13:59:29;;;;;;;2.85;1.00;;;21.70;45.40;;;;;;6226347;28;20060;-69
2022/05/15 14:02:53;;;;;;;3.15;1.20;;;21.70;45.30;;;;;;6226059;28;20519;-69
2022/05/15 14:06:32;;;;;;;3.08;1.00;;;21.70;45.50;;;;;;6243187;28;20045;-69
2022/05/15 14:09:51;;;;;;;2.45;1.05;;;21.70;45.90;;;;;;6243505;28;20073;-70
2022/05/15 14:12:54;;;;;;;2.10;0.88;;;21.70;45.80;;;;;;6228899;28;20021;-69
2022/05/15 14:15:56;;;;;;;1.52;0.75;;;21.60;46.40;;;;;;6225725;28;20770;-69
2022/05/15 14:18:57;;;;;;;4.60;0.88;;;21.60;47.10;;;;;;6225640;28;20072;-69
2022/05/15 14:22:04;;;;;;;4.32;0.80;;;21.60;47.30;;;;;;6242920;28;20682;-69
2022/05/15 14:25:07;;;;;;;3.78;0.80;;;21.60;47.80;;;;;;6205131;28;20469;-69
2022/05/15 14:28:09;;;;;;;1.80;0.70;;;21.60;47.80;;;;;;6233406;28;20021;-69
2022/05/15 14:31:11;;;;;;;2.15;0.82;;;21.60;47.90;;;;;;6242905;28;20013;-68
2022/05/15 14:34:13;;;;;;;1.55;0.90;;;21.60;48.20;;;;;;6242456;28;20472;-69
2022/05/15 14:37:14;;;;;;;2.15;0.80;;;21.60;48.20;;;;;;6243116;28;20056;-68
2022/05/15 14:40:14;;;;;;;2.85;1.00;;;21.50;48.00;;;;;;6242908;28;20034;-69
2022/05/15 14:43:15;;;;;;;1.80;0.85;;;21.50;48.10;;;;;;6224882;28;20025;-68
2022/05/15 14:46:23;;;;;;;1.75;0.85;;;21.50;48.60;;;;;;6242269;28;20033;-68
2022/05/15 14:49:26;;;;;;;1.08;0.70;;;21.50;48.20;;;;;;6222906;28;20021;-68
2022/05/15 14:52:32;;;;;;;2.28;1.00;;;21.50;48.60;;;;;;6209794;28;20022;-68
2022/05/15 14:59:00;;;;;;;1.48;0.70;;;21.50;48.70;;;;;;6243085;28;20034;-69
2022/05/15 15:02:02;;;;;;;1.27;0.60;;;21.50;48.90;;;;;;6224463;28;20026;-68
2022/05/15 15:05:03;;;;;;;0.75;0.60;;;21.50;49.10;;;;;;6240726;28;20071;-67
2022/05/15 15:08:04;;;;;;;1.02;0.60;;;21.50;49.10;;;;;;6252888;28;20037;-68
2022/05/15 15:11:21;;;;;;;1.73;0.80;;;21.50;49.20;;;;;;6266571;28;20731;-68
2022/05/15 15:14:22;;;;;;;1.58;0.60;;;21.50;49.30;;;;;;6266306;28;20017;-68
2022/05/15 15:17:23;;;;;;;2.35;0.77;;;21.50;49.20;;;;;;6266673;28;20021;-68
2022/05/15 15:20:24;;;;;;;5.00;0.60;;;21.50;49.30;;;;;;6266097;28;20387;-69
2022/05/15 15:23:24;;;;;;;1.33;0.68;;;21.50;49.30;;;;;;6227168;28;20049;-68
2022/05/15 15:26:26;;;;;;;1.67;0.80;;;21.50;49.40;;;;;;6241447;28;20040;-68
2022/05/15 15:29:27;;;;;;;0.88;0.60;;;21.50;49.30;;;;;;6241412;28;20029;-68
2022/05/15 15:32:28;;;;;;;1.45;0.80;;;21.40;49.30;;;;;;6223620;28;20022;-68
2022/05/15 15:35:28;;;;;;;1.50;0.65;;;21.50;49.50;;;;;;6240783;28;20029;-68
2022/05/15 15:38:29;;;;;;;1.23;0.75;;;21.40;49.30;;;;;;6224153;28;20094;-68
2022/05/15 15:41:30;;;;;;;1.10;0.70;;;21.40;49.40;;;;;;6241498;28;20041;-68
2022/05/15 15:44:30;;;;;;;1.00;0.50;;;21.40;49.40;;;;;;6241191;28;20029;-68
2022/05/15 15:47:31;;;;;;;2.05;0.60;;;21.40;49.40;;;;;;6223455;28;20021;-68
2022/05/15 15:50:31;;;;;;;0.70;0.60;;;21.40;49.50;;;;;;6241295;28;20021;-68
2022/05/15 15:53:32;;;;;;;0.98;0.60;;;21.40;49.50;;;;;;6223298;28;20021;-68
2022/05/15 15:56:35;;;;;;;1.58;0.70;;;21.40;49.60;;;;;;6241452;28;20548;-67
2022/05/15 15:59:36;;;;;;;0.85;0.50;;;21.40;49.60;;;;;;6241485;28;20017;-67
2022/05/15 16:02:42;;;;;;;1.42;0.60;;;21.40;49.70;;;;;;6247109;28;20028;-67
2022/05/15 16:05:46;;;;;;;0.63;0.57;;;21.40;49.70;;;;;;6265259;28;20124;-67
2022/05/15 16:08:49;;;;;;;0.93;0.70;;;21.40;49.70;;;;;;6247541;28;20109;-67
2022/05/15 16:11:50;;;;;;;0.63;0.50;;;21.40;49.70;;;;;;6241197;28;20582;-67
2022/05/15 16:14:50;;;;;;;0.82;0.60;;;21.40;49.70;;;;;;6241083;28;20049;-67
2022/05/15 16:17:53;;;;;;;1.35;0.50;;;21.40;49.80;;;;;;6241103;28;20030;-68
2022/05/15 16:21:00;;;;;;;0.70;0.60;;;21.40;49.80;;;;;;6241054;28;20492;-67
2022/05/15 16:24:02;;;;;;;2.15;0.50;;;21.40;49.80;;;;;;6230010;28;20034;-67
2022/05/15 16:27:07;;;;;;;0.80;0.47;;;21.40;49.90;;;;;;6214734;28;20026;-67
2022/05/15 16:30:10;;;;;;;1.17;0.60;;;21.40;49.90;;;;;;6223421;28;20084;-67
2022/05/15 16:33:12;;;;;;;1.85;0.45;;;21.40;49.90;;;;;;6240396;28;20031;-68
2022/05/15 16:36:13;;;;;;;0.73;0.50;;;21.40;49.90;;;;;;6244955;28;20052;-67